Time;durP1;ratioP1;P1;durP2;ratioP2;P2;SDS_P1;SDS_P2;PMS_P1;PMS_P2;Temp;Humidity;BMP_temperature;BMP_pressure;BME280_temperature;BME280_humidity;BME280_pressure;Samples;Min_cycle;Max_cycle;Signal;HPM_P1;HPM_P2
2023/06/19 00:01:37;;;;;;;7.17;5.70;;;;;;;;;;4983702;28;20209;-71
2023/06/19 00:04:41;;;;;;;9.17;5.37;;;;;;;;;;4995574;28;20178;-70
2023/06/19 00:07:45;;;;;;;9.77;5.10;;;;;;;;;;4995785;28;20523;-71
2023/06/19 00:10:50;;;;;;;5.63;5.03;;;;;;;;;;4995501;28;20229;-71
2023/06/19 00:13:53;;;;;;;7.07;5.70;;;;;;;;;;4995710;28;20186;-71
2023/06/19 00:17:00;;;;;;;5.60;4.90;;;;;;;;;;4995403;28;20182;-71
2023/06/19 00:20:05;;;;;;;7.50;5.60;;;;;;;;;;4995505;28;20203;-71
2023/06/19 00:23:13;;;;;;;6.70;5.67;;;;;;;;;;4995500;28;20186;-71
2023/06/19 00:26:17;;;;;;;9.00;5.60;;;;;;;;;;4995337;28;20198;-70
2023/06/19 00:29:21;;;;;;;7.07;4.97;;;;;;;;;;4995329;28;20198;-71
2023/06/19 00:32:25;;;;;;;6.70;5.60;;;;;;;;;;4994244;28;20562;-71
2023/06/19 00:35:29;;;;;;;7.13;5.60;;;;;;;;;;4983301;28;20186;-71
2023/06/19 00:38:34;;;;;;;8.30;5.70;;;;;;;;;;4994179;28;20182;-71
2023/06/19 00:41:39;;;;;;;6.50;5.13;;;;;;;;;;4994164;28;20213;-71
2023/06/19 00:44:43;;;;;;;6.20;5.60;;;;;;;;;;4994160;28;20206;-71
2023/06/19 00:47:48;;;;;;;6.63;5.67;;;;;;;;;;4982854;28;20183;-70
2023/06/19 00:50:52;;;;;;;7.03;6.20;;;;;;;;;;4994084;28;20229;-71
2023/06/19 00:53:56;;;;;;;9.10;6.03;;;;;;;;;;4993214;28;20182;-71
2023/06/19 00:57:01;;;;;;;7.23;5.53;;;;;;;;;;4993790;28;20534;-71
2023/06/19 01:00:07;;;;;;;7.10;5.40;;;;;;;;;;4993723;28;20182;-71
2023/06/19 01:03:11;;;;;;;6.53;5.83;;;;;;;;;;4994485;28;20198;-71
2023/06/19 01:06:23;;;;;;;7.73;5.53;;;;;;;;;;4993618;28;20190;-70
2023/06/19 01:09:31;;;;;;;6.30;5.57;;;;;;;;;;4994619;28;20197;-70
2023/06/19 01:12:44;;;;;;;6.80;6.10;;;;;;;;;;4993727;28;20210;-71
2023/06/19 01:15:48;;;;;;;8.63;6.37;;;;;;;;;;4994777;28;20182;-70
2023/06/19 01:18:53;;;;;;;7.27;5.40;;;;;;;;;;4993677;28;20198;-70
2023/06/19 01:22:02;;;;;;;7.07;5.77;;;;;;;;;;4993284;28;20214;-71
2023/06/19 01:25:06;;;;;;;7.17;6.30;;;;;;;;;;4994347;28;20190;-71
2023/06/19 01:28:14;;;;;;;5.90;5.30;;;;;;;;;;4994121;28;20182;-71
2023/06/19 01:31:26;;;;;;;6.70;5.80;;;;;;;;;;4993843;28;20226;-70
2023/06/19 01:34:30;;;;;;;9.07;5.23;;;;;;;;;;4982364;28;20186;-70
2023/06/19 01:37:36;;;;;;;7.03;5.57;;;;;;;;;;4993437;28;20526;-71
2023/06/19 01:40:43;;;;;;;7.07;5.63;;;;;;;;;;4994031;28;20218;-71
2023/06/19 01:43:48;;;;;;;7.57;6.47;;;;;;;;;;4993353;28;20569;-71
2023/06/19 01:46:53;;;;;;;7.43;5.80;;;;;;;;;;4981954;28;20178;-70
2023/06/19 01:49:57;;;;;;;8.60;6.03;;;;;;;;;;4993748;28;20198;-70
2023/06/19 01:53:01;;;;;;;6.00;5.40;;;;;;;;;;4994055;28;20174;-71
2023/06/19 01:56:05;;;;;;;7.03;5.90;;;;;;;;;;4992975;28;20211;-71
2023/06/19 01:59:09;;;;;;;7.27;5.60;;;;;;;;;;4992877;28;20668;-71
2023/06/19 02:02:14;;;;;;;8.50;5.93;;;;;;;;;;4992861;28;20217;-71
2023/06/19 02:05:18;;;;;;;7.83;6.13;;;;;;;;;;4995669;28;20181;-71
2023/06/19 02:08:22;;;;;;;6.90;5.80;;;;;;;;;;4997167;28;20193;-71
2023/06/19 02:11:26;;;;;;;7.37;6.10;;;;;;;;;;4985586;28;20229;-71
2023/06/19 02:14:32;;;;;;;8.53;5.43;;;;;;;;;;4996827;28;20182;-71
2023/06/19 02:17:36;;;;;;;7.93;6.13;;;;;;;;;;4996755;28;20178;-71
2023/06/19 02:20:41;;;;;;;7.00;6.30;;;;;;;;;;4996852;28;20252;-71
2023/06/19 02:23:45;;;;;;;6.43;5.70;;;;;;;;;;4996940;28;20186;-71
2023/06/19 02:26:50;;;;;;;5.97;5.17;;;;;;;;;;4997662;28;20186;-70
2023/06/19 02:29:54;;;;;;;8.57;5.67;;;;;;;;;;4997578;28;20202;-71
2023/06/19 02:32:59;;;;;;;7.93;5.80;;;;;;;;;;4996521;28;20174;-71
2023/06/19 02:36:04;;;;;;;6.50;5.73;;;;;;;;;;4997519;28;20175;-71
2023/06/19 02:39:09;;;;;;;6.17;5.60;;;;;;;;;;4996372;28;20182;-70
2023/06/19 02:42:13;;;;;;;7.17;6.27;;;;;;;;;;4985191;28;20566;-70
2023/06/19 02:45:17;;;;;;;8.23;6.57;;;;;;;;;;4997120;28;20210;-71
2023/06/19 02:48:23;;;;;;;6.43;5.83;;;;;;;;;;4996244;28;20530;-71
2023/06/19 02:51:27;;;;;;;7.97;6.00;;;;;;;;;;4996274;28;20226;-71
2023/06/19 02:54:31;;;;;;;6.37;5.73;;;;;;;;;;4996920;28;20182;-71
2023/06/19 02:57:37;;;;;;;8.53;6.10;;;;;;;;;;4996143;28;20182;-71
2023/06/19 03:00:41;;;;;;;8.70;6.03;;;;;;;;;;4997087;28;20526;-71
2023/06/19 03:03:46;;;;;;;7.90;5.90;;;;;;;;;;4995970;28;20186;-71
2023/06/19 03:06:50;;;;;;;6.70;6.00;;;;;;;;;;4996434;28;20629;-70
2023/06/19 03:09:54;;;;;;;13.77;7.03;;;;;;;;;;4996342;28;20186;-70
2023/06/19 03:13:00;;;;;;;9.83;6.53;;;;;;;;;;4995689;28;20546;-71
2023/06/19 03:16:04;;;;;;;7.53;6.13;;;;;;;;;;4994914;28;20182;-71
2023/06/19 03:19:08;;;;;;;7.00;5.93;;;;;;;;;;4984478;28;20198;-71
2023/06/19 03:22:13;;;;;;;7.63;6.47;;;;;;;;;;4995439;28;20214;-71
2023/06/19 03:25:19;;;;;;;11.10;6.73;;;;;;;;;;4995712;28;20178;-71
2023/06/19 03:28:24;;;;;;;11.90;7.07;;;;;;;;;;4995773;28;20182;-71
2023/06/19 03:31:28;;;;;;;8.10;6.43;;;;;;;;;;4995189;28;20229;-70
2023/06/19 03:34:33;;;;;;;8.93;6.37;;;;;;;;;;4995919;28;20182;-70
2023/06/19 03:37:38;;;;;;;7.70;6.70;;;;;;;;;;4995567;28;20179;-71
2023/06/19 03:40:42;;;;;;;8.00;6.43;;;;;;;;;;4995927;28;20229;-71
2023/06/19 03:43:49;;;;;;;8.67;7.03;;;;;;;;;;4984256;28;20197;-71
2023/06/19 03:46:53;;;;;;;8.53;6.47;;;;;;;;;;4995071;28;20202;-71
2023/06/19 03:49:57;;;;;;;7.77;5.90;;;;;;;;;;4984208;28;20641;-71
2023/06/19 03:53:02;;;;;;;9.77;6.80;;;;;;;;;;4995241;28;20665;-71
2023/06/19 03:56:07;;;;;;;7.60;6.87;;;;;;;;;;4983789;28;20178;-71
2023/06/19 03:59:11;;;;;;;10.50;6.83;;;;;;;;;;4995212;28;20174;-71
2023/06/19 04:02:15;;;;;;;8.63;7.10;;;;;;;;;;4994735;28;20214;-70
2023/06/19 04:05:21;;;;;;;9.37;7.43;;;;;;;;;;4995086;28;20182;-71
2023/06/19 04:08:25;;;;;;;9.97;7.40;;;;;;;;;;4995137;28;20534;-71
2023/06/19 04:11:29;;;;;;;12.60;7.20;;;;;;;;;;4983328;28;20226;-71
2023/06/19 04:14:33;;;;;;;7.03;6.33;;;;;;;;;;4994912;28;20629;-70
2023/06/19 04:17:37;;;;;;;10.73;7.33;;;;;;;;;;4994602;28;20182;-70
2023/06/19 04:20:41;;;;;;;8.13;6.40;;;;;;;;;;4994438;28;20182;-70
2023/06/19 04:23:45;;;;;;;8.37;7.57;;;;;;;;;;4983567;28;20178;-70
2023/06/19 04:26:49;;;;;;;9.50;7.13;;;;;;;;;;4994666;28;20186;-70
2023/06/19 04:29:53;;;;;;;10.27;7.30;;;;;;;;;;4994733;28;20178;-70
2023/06/19 04:32:58;;;;;;;8.87;6.93;;;;;;;;;;4994980;28;20206;-69
2023/06/19 04:36:03;;;;;;;8.70;7.80;;;;;;;;;;4994992;28;20182;-69
2023/06/19 04:39:07;;;;;;;10.23;7.53;;;;;;;;;;4983517;28;20522;-70
2023/06/19 04:42:12;;;;;;;8.27;6.90;;;;;;;;;;4982844;28;20210;-70
2023/06/19 04:45:16;;;;;;;9.13;7.23;;;;;;;;;;5008246;23;20573;-71
2023/06/19 04:48:24;;;;;;;9.20;7.10;;;;;;;;;;4995077;28;20182;-72
2023/06/19 04:51:29;;;;;;;8.87;7.00;;;;;;;;;;4994538;28;20214;-72
2023/06/19 04:54:33;;;;;;;7.63;6.93;;;;;;;;;;4994167;28;20182;-72
2023/06/19 04:57:38;;;;;;;8.50;7.40;;;;;;;;;;4994101;28;20182;-73
2023/06/19 05:00:41;;;;;;;18.00;7.57;;;;;;;;;;4994751;28;20226;-72
2023/06/19 05:03:46;;;;;;;12.20;7.57;;;;;;;;;;4994431;28;20174;-72
2023/06/19 05:06:50;;;;;;;10.37;7.23;;;;;;;;;;4993678;28;20174;-73
2023/06/19 05:09:54;;;;;;;9.83;7.70;;;;;;;;;;4994397;28;20186;-73
2023/06/19 05:12:58;;;;;;;7.87;7.07;;;;;;;;;;4993741;28;20209;-73
2023/06/19 05:16:02;;;;;;;8.80;7.90;;;;;;;;;;4994515;28;20178;-73
2023/06/19 05:19:06;;;;;;;10.57;8.30;;;;;;;;;;4994221;28;20518;-72
2023/06/19 05:22:11;;;;;;;9.40;7.67;;;;;;;;;;4993557;28;20684;-72
2023/06/19 05:25:15;;;;;;;7.77;6.90;;;;;;;;;;4993326;28;20182;-73
2023/06/19 05:28:18;;;;;;;8.40;7.60;;;;;;;;;;4993558;28;20198;-72
2023/06/19 05:31:23;;;;;;;8.47;7.10;;;;;;;;;;4994014;28;20225;-72
2023/06/19 05:34:27;;;;;;;9.83;8.00;;;;;;;;;;4994261;28;20179;-73
2023/06/19 05:37:31;;;;;;;9.43;8.37;;;;;;;;;;4993980;28;20182;-72
2023/06/19 05:40:35;;;;;;;9.70;7.93;;;;;;;;;;4992630;28;20514;-73
2023/06/19 05:43:40;;;;;;;9.57;8.07;;;;;;;;;;4994168;28;20182;-72
2023/06/19 05:46:44;;;;;;;8.67;7.60;;;;;;;;;;4993027;28;20206;-72
2023/06/19 05:49:48;;;;;;;9.17;7.33;;;;;;;;;;4993808;28;20189;-72
2023/06/19 05:52:52;;;;;;;12.57;7.37;;;;;;;;;;4992774;28;20688;-72
2023/06/19 05:55:58;;;;;;;11.43;7.60;;;;;;;;;;4993620;28;20178;-73
2023/06/19 05:59:02;;;;;;;8.90;8.00;;;;;;;;;;4994264;28;20174;-73
2023/06/19 06:02:06;;;;;;;11.30;8.27;;;;;;;;;;4993509;28;20214;-72
2023/06/19 06:05:10;;;;;;;12.60;8.40;;;;;;;;;;4993873;28;20182;-72
2023/06/19 06:08:15;;;;;;;10.27;8.20;;;;;;;;;;4993585;28;20653;-73
2023/06/19 06:11:19;;;;;;;8.43;7.63;;;;;;;;;;4993653;28;20217;-73
2023/06/19 06:14:23;;;;;;;12.80;8.80;;;;;;;;;;4993082;28;20175;-73
2023/06/19 06:17:27;;;;;;;12.50;9.03;;;;;;;;;;4993580;28;20182;-73
2023/06/19 06:20:31;;;;;;;10.53;8.00;;;;;;;;;;4992902;28;20178;-73
2023/06/19 06:23:35;;;;;;;10.73;8.23;;;;;;;;;;4993791;28;20182;-73
2023/06/19 06:26:40;;;;;;;12.10;9.10;;;;;;;;;;4993435;28;20183;-73
2023/06/19 06:29:44;;;;;;;10.33;7.97;;;;;;;;;;4992919;28;20182;-73
2023/06/19 06:32:48;;;;;;;10.03;8.33;;;;;;;;;;4992507;28;20553;-73
2023/06/19 06:35:54;;;;;;;9.40;7.93;;;;;;;;;;4993944;28;20622;-73
2023/06/19 06:38:59;;;;;;;10.53;9.13;;;;;;;;;;4992914;28;20179;-73
2023/06/19 06:42:03;;;;;;;10.23;8.67;;;;;;;;;;4981621;28;20600;-73
2023/06/19 06:45:08;;;;;;;10.87;9.00;;;;;;;;;;4992717;28;20212;-73
2023/06/19 06:48:12;;;;;;;11.30;10.00;;;;;;;;;;4993312;28;20181;-73
2023/06/19 06:51:16;;;;;;;10.13;9.00;;;;;;;;;;4994697;28;20224;-72
2023/06/19 06:54:20;;;;;;;10.00;8.67;;;;;;;;;;4997153;28;20186;-72
2023/06/19 06:57:24;;;;;;;10.03;9.03;;;;;;;;;;4996089;28;20200;-72
2023/06/19 07:00:29;;;;;;;9.77;8.00;;;;;;;;;;4985034;28;20183;-73
2023/06/19 07:03:33;;;;;;;9.90;8.90;;;;;;;;;;4996771;28;20645;-73
2023/06/19 07:06:37;;;;;;;12.37;8.97;;;;;;;;;;4996966;28;20626;-73
2023/06/19 07:09:42;;;;;;;12.60;8.07;;;;;;;;;;4996923;28;20179;-73
2023/06/19 07:12:49;;;;;;;10.10;8.87;;;;;;;;;;4995621;28;20578;-73
2023/06/19 07:15:53;;;;;;;13.47;8.80;;;;;;;;;;4995706;28;20205;-73
2023/06/19 07:18:58;;;;;;;12.82;9.20;;;;;;;;;;4996781;28;20184;-73
2023/06/19 07:22:02;;;;;;;11.48;8.30;;;;;;;;;;4996374;28;20217;-73
2023/06/19 07:25:06;;;;;;;11.00;7.80;;;;;;;;;;4996331;28;20178;-73
2023/06/19 07:28:11;;;;;;;9.60;8.55;;;;;;;;;;4996551;28;20179;-73
2023/06/19 07:31:15;;;;;;;14.65;9.70;;;;;;;;;;4995315;28;20224;-73
2023/06/19 07:34:19;;;;;;;9.27;7.90;;;;;;;;;;4995275;28;20218;-73
2023/06/19 07:37:23;;;;;;;10.15;8.15;;;;;;;;;;4996083;28;20203;-72
2023/06/19 07:40:27;;;;;;;10.63;8.27;;;;;;;;;;4996193;28;20182;-73
2023/06/19 07:43:32;;;;;;;9.32;8.20;;;;;;;;;;4995495;28;20183;-72
2023/06/19 07:46:36;;;;;;;9.23;8.23;;;;;;;;;;4995922;28;20209;-72
2023/06/19 07:49:40;;;;;;;8.77;7.63;;;;;;;;;;4995278;28;20191;-73
2023/06/19 07:52:44;;;;;;;9.98;7.93;;;;;;;;;;4995705;28;20234;-72
2023/06/19 07:55:48;;;;;;;10.70;7.75;;;;;;;;;;4995767;28;20185;-72
2023/06/19 07:58:53;;;;;;;15.05;9.00;;;;;;;;;;4995716;28;20683;-72
2023/06/19 08:01:57;;;;;;;14.45;8.77;;;;;;;;;;4995442;28;20700;-72
2023/06/19 08:05:01;;;;;;;8.20;7.40;;;;;;;;;;4995928;28;20181;-72
2023/06/19 08:08:05;;;;;;;9.90;8.75;;;;;;;;;;4994776;28;20181;-72
2023/06/19 08:11:09;;;;;;;11.95;8.15;;;;;;;;;;4995850;28;20225;-72
2023/06/19 08:14:14;;;;;;;12.05;8.05;;;;;;;;;;4995636;28;20213;-72
2023/06/19 08:17:18;;;;;;;11.82;8.25;;;;;;;;;;4995565;28;20178;-70
2023/06/19 08:20:22;;;;;;;9.98;8.02;;;;;;;;;;4995571;28;20178;-70
2023/06/19 08:23:26;;;;;;;9.52;7.88;;;;;;;;;;4995275;28;20183;-70
2023/06/19 08:26:30;;;;;;;16.10;7.63;;;;;;;;;;4994727;28;20178;-70
2023/06/19 08:29:34;;;;;;;8.27;7.38;;;;;;;;;;4995457;28;20650;-72
2023/06/19 08:32:38;;;;;;;11.30;8.55;;;;;;;;;;4994927;28;20691;-72
2023/06/19 08:35:42;;;;;;;10.02;8.35;;;;;;;;;;4995392;28;20623;-73
2023/06/19 08:38:49;;;;;;;8.63;7.75;;;;;;;;;;4994998;28;20184;-72
2023/06/19 08:41:53;;;;;;;8.55;7.70;;;;;;;;;;4994988;28;20220;-73
2023/06/19 08:44:57;;;;;;;9.77;7.97;;;;;;;;;;4994242;28;20181;-72
2023/06/19 08:48:05;;;;;;;28.98;9.13;;;;;;;;;;4994844;28;20523;-72
2023/06/19 08:51:17;;;;;;;9.50;8.15;;;;;;;;;;4993888;28;20218;-72
2023/06/19 08:54:20;;;;;;;13.52;9.10;;;;;;;;;;4994582;28;20232;-72
2023/06/19 08:57:36;;;;;;;13.82;8.55;;;;;;;;;;4993795;28;20196;-72
2023/06/19 09:00:47;;;;;;;12.90;8.73;;;;;;;;;;4995091;28;20187;-72
2023/06/19 09:03:52;;;;;;;9.45;8.23;;;;;;;;;;4994802;28;20174;-72
2023/06/19 09:06:57;;;;;;;8.80;7.90;;;;;;;;;;4994432;28;20546;-72
2023/06/19 09:10:14;;;;;;;9.52;8.18;;;;;;;;;;4994367;28;20201;-72
2023/06/19 09:13:18;;;;;;;8.85;7.65;;;;;;;;;;4994558;28;20211;-72
2023/06/19 09:16:24;;;;;;;10.85;7.93;;;;;;;;;;4994231;28;20176;-72
2023/06/19 09:19:28;;;;;;;10.73;8.27;;;;;;;;;;4982577;28;20188;-72
2023/06/19 09:22:32;;;;;;;9.40;8.43;;;;;;;;;;4993597;28;20695;-72
2023/06/19 09:25:48;;;;;;;9.25;8.32;;;;;;;;;;4994412;28;20192;-70
2023/06/19 09:28:51;;;;;;;8.40;7.60;;;;;;;;;;4993276;28;20634;-70
2023/06/19 09:31:56;;;;;;;9.05;7.72;;;;;;;;;;4992899;28;20241;-70
2023/06/19 09:35:00;;;;;;;8.27;7.47;;;;;;;;;;4994151;28;20558;-70
2023/06/19 09:38:05;;;;;;;9.27;7.55;;;;;;;;;;4993948;28;20532;-70
2023/06/19 09:41:09;;;;;;;14.63;8.18;;;;;;;;;;4993855;28;20696;-69
2023/06/19 09:44:14;;;;;;;8.73;7.88;;;;;;;;;;4994156;28;20174;-70
2023/06/19 09:47:23;;;;;;;9.63;7.22;;;;;;;;;;4993960;28;20630;-70
2023/06/19 09:50:28;;;;;;;7.82;7.00;;;;;;;;;;4993804;28;20629;-69
2023/06/19 09:53:34;;;;;;;9.15;7.13;;;;;;;;;;4993220;28;20280;-70
2023/06/19 09:56:39;;;;;;;7.72;6.00;;;;;;;;;;4993680;28;20651;-70
2023/06/19 09:59:43;;;;;;;7.65;5.93;;;;;;;;;;4993681;28;20200;-70
2023/06/19 10:02:48;;;;;;;6.72;5.50;;;;;;;;;;4993610;28;20220;-70
2023/06/19 10:05:58;;;;;;;8.73;6.00;;;;;;;;;;4993992;28;20621;-70
2023/06/19 10:09:08;;;;;;;6.10;5.50;;;;;;;;;;4992842;28;20183;-70
2023/06/19 10:12:12;;;;;;;7.68;5.55;;;;;;;;;;4993579;28;20216;-70
2023/06/19 10:15:18;;;;;;;7.10;5.63;;;;;;;;;;4993888;28;20184;-70
2023/06/19 10:18:24;;;;;;;6.40;5.80;;;;;;;;;;4993599;28;20177;-70
2023/06/19 10:21:47;;;;;;;5.75;5.20;;;;;;;;;;4993525;28;20226;-70
2023/06/19 10:24:51;;;;;;;9.57;5.55;;;;;;;;;;4992809;28;20630;-70
2023/06/19 10:27:56;;;;;;;7.03;5.30;;;;;;;;;;4997445;28;20182;-70
2023/06/19 10:31:03;;;;;;;6.68;4.88;;;;;;;;;;4997228;28;20222;-70
2023/06/19 10:34:07;;;;;;;9.40;5.32;;;;;;;;;;4997472;28;20210;-70
2023/06/19 10:37:10;;;;;;;5.90;4.47;;;;;;;;;;4997215;28;20198;-69
2023/06/19 10:40:15;;;;;;;6.32;4.90;;;;;;;;;;4997124;28;20212;-70
2023/06/19 10:43:24;;;;;;;6.10;5.50;;;;;;;;;;4997398;28;20183;-70
2023/06/19 10:46:30;;;;;;;7.40;5.22;;;;;;;;;;5011628;22;20234;-71
2023/06/19 10:49:35;;;;;;;10.95;9.20;;;;;;;;;;5007824;28;20183;-71
2023/06/19 10:52:41;;;;;;;9.48;6.95;;;;;;;;;;4997188;28;20222;-71
2023/06/19 10:55:45;;;;;;;4.63;4.22;;;;;;;;;;4996339;28;20182;-71
2023/06/19 10:59:06;;;;;;;5.30;4.55;;;;;;;;;;4996100;28;20179;-71
2023/06/19 11:02:10;;;;;;;5.10;4.60;;;;;;;;;;4995920;28;20222;-71
2023/06/19 11:05:14;;;;;;;4.88;4.38;;;;;;;;;;4997098;28;20170;-71
2023/06/19 11:08:20;;;;;;;7.53;4.43;;;;;;;;;;4997227;28;20183;-71
2023/06/19 11:11:44;;;;;;;7.88;4.90;;;;;;;;;;4996713;28;20214;-70
2023/06/19 11:14:49;;;;;;;4.75;4.32;;;;;;;;;;4996800;28;20540;-71
2023/06/19 11:17:53;;;;;;;6.53;3.85;;;;;;;;;;4996498;28;20194;-71
2023/06/19 11:20:57;;;;;;;5.50;4.43;;;;;;;;;;4996177;28;20213;-71
2023/06/19 11:24:01;;;;;;;5.63;3.97;;;;;;;;;;4995910;28;20225;-71
2023/06/19 11:27:10;;;;;;;4.82;4.15;;;;;;;;;;4996592;28;20187;-71
2023/06/19 11:30:14;;;;;;;7.80;4.22;;;;;;;;;;4996310;28;20186;-71
2023/06/19 11:33:22;;;;;;;5.32;4.82;;;;;;;;;;4995624;28;20182;-71
2023/06/19 11:36:26;;;;;;;7.18;4.95;;;;;;;;;;4996362;28;20209;-71
2023/06/19 11:39:30;;;;;;;5.95;4.75;;;;;;;;;;4995339;28;20518;-70
2023/06/19 11:42:44;;;;;;;6.35;4.50;;;;;;;;;;4996263;28;20213;-71
2023/06/19 11:45:49;;;;;;;6.68;4.60;;;;;;;;;;4984322;28;20202;-71
2023/06/19 11:48:53;;;;;;;5.30;4.70;;;;;;;;;;4996243;28;20183;-71
2023/06/19 11:51:57;;;;;;;5.20;4.57;;;;;;;;;;4995083;28;20218;-71
2023/06/19 11:55:01;;;;;;;5.32;4.57;;;;;;;;;;4994979;28;20210;-71
2023/06/19 11:58:05;;;;;;;7.80;5.20;;;;;;;;;;4995709;28;20182;-71
2023/06/19 12:01:09;;;;;;;5.22;4.82;;;;;;;;;;4995109;28;20214;-71
2023/06/19 12:04:14;;;;;;;10.02;4.70;;;;;;;;;;4995958;28;20186;-71
2023/06/19 12:07:19;;;;;;;6.22;4.32;;;;;;;;;;4994828;28;20685;-71
2023/06/19 12:10:23;;;;;;;4.78;4.38;;;;;;;;;;4995498;28;20179;-71
2023/06/19 12:13:27;;;;;;;9.68;4.38;;;;;;;;;;4995444;28;20182;-71
2023/06/19 12:16:31;;;;;;;4.78;4.20;;;;;;;;;;4994645;28;20175;-71
2023/06/19 12:19:35;;;;;;;5.30;4.65;;;;;;;;;;4995644;28;20187;-71
2023/06/19 12:22:40;;;;;;;4.75;4.20;;;;;;;;;;4995248;28;20221;-71
2023/06/19 12:25:44;;;;;;;6.25;4.32;;;;;;;;;;4995484;28;20171;-71
2023/06/19 12:28:48;;;;;;;4.78;4.38;;;;;;;;;;4995211;28;20182;-71
2023/06/19 12:31:52;;;;;;;7.35;3.78;;;;;;;;;;4995150;28;20226;-71
2023/06/19 12:34:56;;;;;;;5.90;4.38;;;;;;;;;;4994168;28;20692;-71
2023/06/19 12:38:01;;;;;;;5.13;4.30;;;;;;;;;;4995344;28;20637;-71
2023/06/19 12:41:04;;;;;;;5.32;4.05;;;;;;;;;;4994382;28;20217;-71
2023/06/19 12:44:08;;;;;;;6.35;3.97;;;;;;;;;;4994910;28;20630;-71
2023/06/19 12:47:13;;;;;;;5.85;3.72;;;;;;;;;;4994779;28;20672;-71
2023/06/19 12:50:17;;;;;;;8.02;3.80;;;;;;;;;;4994971;28;20638;-71
2023/06/19 12:53:26;;;;;;;7.05;3.70;;;;;;;;;;4994998;28;20178;-70
2023/06/19 12:56:30;;;;;;;3.97;3.47;;;;;;;;;;4994663;28;20198;-71
2023/06/19 12:59:34;;;;;;;5.95;3.40;;;;;;;;;;4994559;28;20194;-71
2023/06/19 13:02:39;;;;;;;5.50;3.50;;;;;;;;;;4994487;28;20217;-71
2023/06/19 13:05:43;;;;;;;4.13;3.30;;;;;;;;;;4994487;28;20548;-71
2023/06/19 13:08:47;;;;;;;3.90;3.50;;;;;;;;;;4993943;28;20197;-71
2023/06/19 13:11:51;;;;;;;3.60;3.30;;;;;;;;;;4993955;28;20214;-71
2023/06/19 13:14:54;;;;;;;21.30;4.05;;;;;;;;;;4993720;28;20210;-71
2023/06/19 13:17:59;;;;;;;5.00;3.33;;;;;;;;;;4994296;28;20175;-71
2023/06/19 13:21:03;;;;;;;3.35;3.05;;;;;;;;;;4994445;28;20221;-71
2023/06/19 13:24:07;;;;;;;5.00;3.00;;;;;;;;;;4994197;28;20202;-71
2023/06/19 13:27:11;;;;;;;3.95;2.72;;;;;;;;;;4994146;28;20526;-71
2023/06/19 13:30:16;;;;;;;7.97;3.13;;;;;;;;;;4993870;28;20183;-71
2023/06/19 13:33:20;;;;;;;3.90;3.13;;;;;;;;;;4982169;28;20186;-71
2023/06/19 13:36:26;;;;;;;5.80;2.50;;;;;;;;;;4993997;28;20179;-71
2023/06/19 13:39:30;;;;;;;7.60;2.90;;;;;;;;;;4993973;28;20198;-71
2023/06/19 13:42:38;;;;;;;3.15;2.20;;;;;;;;;;4993877;28;20581;-71
2023/06/19 13:45:43;;;;;;;2.95;2.40;;;;;;;;;;4993946;28;20206;-71
2023/06/19 13:48:50;;;;;;;2.40;2.20;;;;;;;;;;4994162;28;20187;-71
2023/06/19 13:51:54;;;;;;;3.08;2.30;;;;;;;;;;4994045;28;20218;-71
2023/06/19 13:54:58;;;;;;;2.65;2.42;;;;;;;;;;4994042;28;20206;-71
2023/06/19 13:58:02;;;;;;;3.15;2.10;;;;;;;;;;4993998;28;20183;-71
2023/06/19 14:01:07;;;;;;;4.15;2.42;;;;;;;;;;4992762;28;20218;-71
2023/06/19 14:04:11;;;;;;;2.45;2.25;;;;;;;;;;4993939;28;20198;-71
2023/06/19 14:07:16;;;;;;;2.78;2.53;;;;;;;;;;4993651;28;20198;-71
2023/06/19 14:10:20;;;;;;;2.92;2.33;;;;;;;;;;4993614;28;20195;-71
2023/06/19 14:13:24;;;;;;;3.63;2.40;;;;;;;;;;4992822;28;20202;-72
2023/06/19 14:16:29;;;;;;;2.33;2.13;;;;;;;;;;4993438;28;20222;-71
2023/06/19 14:19:33;;;;;;;3.85;2.45;;;;;;;;;;4993809;28;20518;-71
2023/06/19 14:22:37;;;;;;;4.45;2.28;;;;;;;;;;4992946;28;20218;-71
2023/06/19 14:25:41;;;;;;;2.50;2.30;;;;;;;;;;4993516;28;20642;-71
2023/06/19 14:28:45;;;;;;;5.32;2.40;;;;;;;;;;4992708;28;20178;-71
2023/06/19 14:31:53;;;;;;;2.58;2.10;;;;;;;;;;4993458;28;20226;-71
2023/06/19 14:34:57;;;;;;;4.35;2.15;;;;;;;;;;4993365;28;20206;-72
2023/06/19 14:38:01;;;;;;;5.22;2.38;;;;;;;;;;4992624;28;20187;-72
2023/06/19 14:41:05;;;;;;;5.82;2.50;;;;;;;;;;4993313;28;20214;-71
2023/06/19 14:44:09;;;;;;;2.95;2.40;;;;;;;;;;4993431;28;20179;-72
2023/06/19 14:47:13;;;;;;;5.45;2.80;;;;;;;;;;4993269;28;20210;-71
2023/06/19 14:50:17;;;;;;;3.63;2.40;;;;;;;;;;4992534;28;20199;-72
2023/06/19 14:53:21;;;;;;;4.10;2.50;;;;;;;;;;4993534;28;20191;-72
2023/06/19 14:56:25;;;;;;;6.18;2.25;;;;;;;;;;4992441;28;20226;-72
2023/06/19 14:59:30;;;;;;;2.50;2.30;;;;;;;;;;4993020;28;20202;-70
2023/06/19 15:02:34;;;;;;;3.25;3.00;;;;;;;;;;4992329;28;20218;-71
2023/06/19 15:05:38;;;;;;;4.10;2.38;;;;;;;;;;4993431;28;20179;-72
2023/06/19 15:08:43;;;;;;;3.13;2.55;;;;;;;;;;4992781;28;20182;-71
2023/06/19 15:11:47;;;;;;;5.55;2.50;;;;;;;;;;4992952;28;20554;-72
2023/06/19 15:14:51;;;;;;;2.90;2.47;;;;;;;;;;4996805;28;20214;-72
2023/06/19 15:17:57;;;;;;;2.70;2.50;;;;;;;;;;4995847;28;20178;-72
2023/06/19 15:21:01;;;;;;;3.83;2.80;;;;;;;;;;4995668;28;20218;-71
2023/06/19 15:24:07;;;;;;;5.40;2.60;;;;;;;;;;4996409;28;20186;-71
2023/06/19 15:27:11;;;;;;;3.25;3.00;;;;;;;;;;4996495;28;20622;-71
2023/06/19 15:30:15;;;;;;;2.97;2.67;;;;;;;;;;4995368;28;20183;-71
2023/06/19 15:33:21;;;;;;;7.40;3.28;;;;;;;;;;4995639;28;20182;-71
2023/06/19 15:36:25;;;;;;;4.68;2.60;;;;;;;;;;4995553;28;20206;-71
2023/06/19 15:39:29;;;;;;;2.92;2.72;;;;;;;;;;4996057;28;20644;-71
2023/06/19 15:42:34;;;;;;;2.72;2.53;;;;;;;;;;4995863;28;20674;-70
2023/06/19 15:45:38;;;;;;;5.55;3.15;;;;;;;;;;4995704;28;20191;-71
2023/06/19 15:48:43;;;;;;;2.90;2.70;;;;;;;;;;4996060;28;20537;-71
2023/06/19 15:51:47;;;;;;;2.85;2.65;;;;;;;;;;4994990;28;20222;-71
2023/06/19 15:54:51;;;;;;;4.68;2.80;;;;;;;;;;4995001;28;20187;-71
2023/06/19 15:57:55;;;;;;;3.70;2.83;;;;;;;;;;4995698;28;20178;-71
2023/06/19 16:01:00;;;;;;;4.50;2.80;;;;;;;;;;4995010;28;20214;-71
2023/06/19 16:04:04;;;;;;;8.18;3.58;;;;;;;;;;4995046;28;20654;-72
2023/06/19 16:07:08;;;;;;;3.88;2.65;;;;;;;;;;4994975;28;20171;-71
2023/06/19 16:10:14;;;;;;;3.72;2.63;;;;;;;;;;4995748;28;20182;-71
2023/06/19 16:13:18;;;;;;;3.10;2.80;;;;;;;;;;4995782;28;20621;-71
2023/06/19 16:16:22;;;;;;;2.90;2.63;;;;;;;;;;4995694;28;20210;-71
2023/06/19 16:19:26;;;;;;;3.42;2.90;;;;;;;;;;4995521;28;20182;-71
2023/06/19 16:22:30;;;;;;;4.00;3.00;;;;;;;;;;4995583;28;20218;-71
2023/06/19 16:25:34;;;;;;;3.97;3.10;;;;;;;;;;4995154;28;20179;-71
2023/06/19 16:28:38;;;;;;;3.30;3.00;;;;;;;;;;4994271;28;20179;-71
2023/06/19 16:31:42;;;;;;;3.05;2.75;;;;;;;;;;4995085;28;20213;-71
2023/06/19 16:34:46;;;;;;;3.33;3.03;;;;;;;;;;4983017;28;20178;-71
2023/06/19 16:37:55;;;;;;;4.13;2.88;;;;;;;;;;4983226;28;20186;-71
2023/06/19 16:41:00;;;;;;;6.07;3.53;;;;;;;;;;4994133;28;20225;-70
2023/06/19 16:44:04;;;;;;;8.75;3.67;;;;;;;;;;4994105;28;20191;-71
2023/06/19 16:47:08;;;;;;;3.10;2.80;;;;;;;;;;5008847;23;20234;-69
2023/06/19 16:50:12;;;;;;;6.53;3.13;;;;;;;;;;4994642;28;20198;-70
2023/06/19 16:53:17;;;;;;;7.68;3.05;;;;;;;;;;4975453;28;20202;-69
2023/06/19 16:56:21;;;;;;;5.32;3.38;;;;;;;;;;4975067;28;20551;-69
2023/06/19 16:59:25;;;;;;;5.63;3.03;;;;;;;;;;4974561;28;20189;-70
2023/06/19 17:02:29;;;;;;;4.25;3.20;;;;;;;;;;4975006;28;20226;-70
2023/06/19 17:05:34;;;;;;;3.28;2.95;;;;;;;;;;4974948;28;20534;-70
2023/06/19 17:08:38;;;;;;;4.30;3.25;;;;;;;;;;4974947;28;20199;-70
2023/06/19 17:11:42;;;;;;;3.83;3.42;;;;;;;;;;4974835;28;20221;-70
2023/06/19 17:14:47;;;;;;;4.78;3.42;;;;;;;;;;4974855;28;20199;-69
2023/06/19 17:17:51;;;;;;;5.25;3.50;;;;;;;;;;4974805;28;20182;-70
2023/06/19 17:20:55;;;;;;;3.80;3.50;;;;;;;;;;4974078;28;20218;-70
2023/06/19 17:24:00;;;;;;;6.75;3.40;;;;;;;;;;4974154;28;20185;-70
2023/06/19 17:27:04;;;;;;;6.00;3.10;;;;;;;;;;4974625;28;20175;-70
2023/06/19 17:30:10;;;;;;;4.72;3.78;;;;;;;;;;4974506;28;20183;-69
2023/06/19 17:33:14;;;;;;;8.20;3.85;;;;;;;;;;4973768;28;20184;-69
2023/06/19 17:36:18;;;;;;;6.75;3.35;;;;;;;;;;4973734;28;20203;-70
2023/06/19 17:39:22;;;;;;;6.50;4.10;;;;;;;;;;4974701;28;20183;-71
2023/06/19 17:42:26;;;;;;;5.82;4.88;;;;;;;;;;4973687;28;20218;-72
2023/06/19 17:45:30;;;;;;;7.47;5.90;;;;;;;;;;4974650;28;20654;-72
2023/06/19 17:48:34;;;;;;;7.35;5.68;;;;;;;;;;4974876;28;20182;-72
2023/06/19 17:51:38;;;;;;;12.73;5.40;;;;;;;;;;4974474;28;20221;-70
2023/06/19 17:54:50;;;;;;;9.45;5.88;;;;;;;;;;4973748;28;20185;-72
2023/06/19 17:57:54;;;;;;;7.45;5.95;;;;;;;;;;4974527;28;20177;-72
2023/06/19 18:00:58;;;;;;;6.93;5.65;;;;;;;;;;4974368;28;20577;-71
2023/06/19 18:04:02;;;;;;;9.27;5.75;;;;;;;;;;4973684;28;20183;-72
2023/06/19 18:07:06;;;;;;;8.27;6.40;;;;;;;;;;4973585;28;20181;-71
2023/06/19 18:10:10;;;;;;;7.97;6.18;;;;;;;;;;4974138;28;20181;-72
2023/06/19 18:13:15;;;;;;;12.27;6.20;;;;;;;;;;4984977;28;20194;-71
2023/06/19 18:16:19;;;;;;;6.40;5.82;;;;;;;;;;4973990;28;20216;-71
2023/06/19 18:19:23;;;;;;;7.50;6.20;;;;;;;;;;4974235;28;20188;-71
2023/06/19 18:22:27;;;;;;;7.07;6.07;;;;;;;;;;4973345;28;20215;-72
2023/06/19 18:25:31;;;;;;;10.48;6.93;;;;;;;;;;4973340;28;20176;-72